sensor_id;sensor_type;location;lat;lon;timestamp;P1;durP1;ratioP1;P2;durP2;ratioP2
19434;SDS011;9853;50.848;4.108;2023-10-09T00:01:40;4.32;;;1.67;;
19434;SDS011;9853;50.848;4.108;2023-10-09T00:03:47;5.93;;;2.10;;
19434;SDS011;9853;50.848;4.108;2023-10-09T00:05:53;6.15;;;2.20;;
19434;SDS011;9853;50.848;4.108;2023-10-09T00:07:54;11.15;;;2.08;;
19434;SDS011;9853;50.848;4.108;2023-10-09T00:09:56;6.72;;;2.22;;
19434;SDS011;9853;50.848;4.108;2023-10-09T00:11:57;5.80;;;2.33;;
19434;SDS011;9853;50.848;4.108;2023-10-09T00:14:01;7.70;;;2.35;;
19434;SDS011;9853;50.848;4.108;2023-10-09T00:16:05;4.20;;;1.83;;
19434;SDS011;9853;50.848;4.108;2023-10-09T00:18:13;7.55;;;2.45;;
19434;SDS011;9853;50.848;4.108;2023-10-09T00:20:14;5.05;;;1.88;;
19434;SDS011;9853;50.848;4.108;2023-10-09T00:22:20;8.55;;;2.00;;
19434;SDS011;9853;50.848;4.108;2023-10-09T00:24:24;5.32;;;2.08;;
19434;SDS011;9853;50.848;4.108;2023-10-09T00:26:25;3.88;;;1.88;;
19434;SDS011;9853;50.848;4.108;2023-10-09T00:28:26;4.47;;;1.73;;
19434;SDS011;9853;50.848;4.108;2023-10-09T00:30:27;4.90;;;2.08;;
19434;SDS011;9853;50.848;4.108;2023-10-09T00:32:30;3.42;;;1.52;;
19434;SDS011;9853;50.848;4.108;2023-10-09T00:34:34;4.57;;;1.95;;
19434;SDS011;9853;50.848;4.108;2023-10-09T00:36:39;3.28;;;1.65;;
19434;SDS011;9853;50.848;4.108;2023-10-09T00:38:50;5.40;;;2.42;;
19434;SDS011;9853;50.848;4.108;2023-10-09T00:40:52;6.32;;;2.83;;
19434;SDS011;9853;50.848;4.108;2023-10-09T00:43:13;4.45;;;1.65;;
19434;SDS011;9853;50.848;4.108;2023-10-09T00:45:15;5.00;;;2.15;;
19434;SDS011;9853;50.848;4.108;2023-10-09T00:47:25;5.07;;;2.30;;
19434;SDS011;9853;50.848;4.108;2023-10-09T00:49:34;4.03;;;1.90;;
19434;SDS011;9853;50.848;4.108;2023-10-09T00:51:35;5.25;;;2.45;;
19434;SDS011;9853;50.848;4.108;2023-10-09T00:53:39;4.22;;;1.73;;
19434;SDS011;9853;50.848;4.108;2023-10-09T00:55:39;4.53;;;1.90;;
19434;SDS011;9853;50.848;4.108;2023-10-09T00:57:44;3.55;;;2.00;;
19434;SDS011;9853;50.848;4.108;2023-10-09T01:00:00;3.63;;;1.92;;
19434;SDS011;9853;50.848;4.108;2023-10-09T01:02:01;6.72;;;2.35;;
19434;SDS011;9853;50.848;4.108;2023-10-09T01:04:05;5.60;;;1.90;;
19434;SDS011;9853;50.848;4.108;2023-10-09T01:06:17;4.70;;;2.35;;
19434;SDS011;9853;50.848;4.108;2023-10-09T01:08:21;5.38;;;2.38;;
19434;SDS011;9853;50.848;4.108;2023-10-09T01:10:47;6.93;;;2.28;;
19434;SDS011;9853;50.848;4.108;2023-10-09T01:12:52;7.55;;;2.50;;
19434;SDS011;9853;50.848;4.108;2023-10-09T01:14:55;3.80;;;1.63;;
19434;SDS011;9853;50.848;4.108;2023-10-09T01:16:56;8.90;;;2.33;;
19434;SDS011;9853;50.848;4.108;2023-10-09T01:19:00;5.82;;;1.67;;
19434;SDS011;9853;50.848;4.108;2023-10-09T01:21:06;9.65;;;2.78;;
19434;SDS011;9853;50.848;4.108;2023-10-09T01:23:10;4.00;;;2.05;;
19434;SDS011;9853;50.848;4.108;2023-10-09T01:25:12;4.38;;;1.95;;
19434;SDS011;9853;50.848;4.108;2023-10-09T01:27:13;6.55;;;2.67;;
19434;SDS011;9853;50.848;4.108;2023-10-09T01:29:17;10.30;;;2.25;;
19434;SDS011;9853;50.848;4.108;2023-10-09T01:31:22;5.15;;;2.35;;
19434;SDS011;9853;50.848;4.108;2023-10-09T01:33:26;5.30;;;2.33;;
19434;SDS011;9853;50.848;4.108;2023-10-09T01:35:31;5.68;;;1.90;;
19434;SDS011;9853;50.848;4.108;2023-10-09T01:37:34;4.75;;;2.33;;
19434;SDS011;9853;50.848;4.108;2023-10-09T01:39:39;6.38;;;1.92;;
19434;SDS011;9853;50.848;4.108;2023-10-09T01:41:41;5.28;;;2.55;;
19434;SDS011;9853;50.848;4.108;2023-10-09T01:43:47;5.82;;;2.65;;
19434;SDS011;9853;50.848;4.108;2023-10-09T01:45:51;4.32;;;1.85;;
19434;SDS011;9853;50.848;4.108;2023-10-09T01:47:55;4.78;;;1.95;;
19434;SDS011;9853;50.848;4.108;2023-10-09T01:49:56;2.92;;;1.70;;
19434;SDS011;9853;50.848;4.108;2023-10-09T01:51:58;9.20;;;2.42;;
19434;SDS011;9853;50.848;4.108;2023-10-09T01:54:02;7.95;;;2.78;;
19434;SDS011;9853;50.848;4.108;2023-10-09T01:56:09;7.50;;;2.13;;
19434;SDS011;9853;50.848;4.108;2023-10-09T01:58:16;5.40;;;2.30;;
19434;SDS011;9853;50.848;4.108;2023-10-09T02:00:22;6.75;;;1.88;;
19434;SDS011;9853;50.848;4.108;2023-10-09T02:02:24;6.72;;;2.40;;
19434;SDS011;9853;50.848;4.108;2023-10-09T02:04:26;4.03;;;2.20;;
19434;SDS011;9853;50.848;4.108;2023-10-09T02:06:27;3.92;;;2.08;;
19434;SDS011;9853;50.848;4.108;2023-10-09T02:08:32;5.78;;;2.40;;
19434;SDS011;9853;50.848;4.108;2023-10-09T02:10:36;4.30;;;2.20;;
19434;SDS011;9853;50.848;4.108;2023-10-09T02:12:38;5.20;;;1.92;;
19434;SDS011;9853;50.848;4.108;2023-10-09T02:14:41;8.63;;;2.40;;
19434;SDS011;9853;50.848;4.108;2023-10-09T02:16:42;6.50;;;2.03;;
19434;SDS011;9853;50.848;4.108;2023-10-09T02:18:43;4.90;;;1.77;;
19434;SDS011;9853;50.848;4.108;2023-10-09T02:22:59;4.97;;;1.92;;
19434;SDS011;9853;50.848;4.108;2023-10-09T02:25:00;4.60;;;2.30;;
19434;SDS011;9853;50.848;4.108;2023-10-09T02:27:05;4.53;;;1.70;;
19434;SDS011;9853;50.848;4.108;2023-10-09T02:29:08;5.22;;;1.83;;
19434;SDS011;9853;50.848;4.108;2023-10-09T02:31:12;6.10;;;2.03;;
19434;SDS011;9853;50.848;4.108;2023-10-09T02:33:22;4.47;;;2.00;;
19434;SDS011;9853;50.848;4.108;2023-10-09T02:35:30;6.47;;;1.90;;
19434;SDS011;9853;50.848;4.108;2023-10-09T02:37:42;6.45;;;2.33;;
19434;SDS011;9853;50.848;4.108;2023-10-09T02:39:45;4.72;;;2.15;;
19434;SDS011;9853;50.848;4.108;2023-10-09T02:41:51;4.63;;;2.08;;
19434;SDS011;9853;50.848;4.108;2023-10-09T02:44:02;6.53;;;2.45;;
19434;SDS011;9853;50.848;4.108;2023-10-09T02:46:11;5.18;;;2.38;;
19434;SDS011;9853;50.848;4.108;2023-10-09T02:48:19;6.63;;;2.40;;
19434;SDS011;9853;50.848;4.108;2023-10-09T02:50:21;6.40;;;2.13;;
19434;SDS011;9853;50.848;4.108;2023-10-09T02:52:23;7.18;;;2.17;;
19434;SDS011;9853;50.848;4.108;2023-10-09T02:54:32;4.25;;;2.15;;
19434;SDS011;9853;50.848;4.108;2023-10-09T02:56:41;4.53;;;2.53;;
19434;SDS011;9853;50.848;4.108;2023-10-09T02:58:43;4.35;;;2.10;;
19434;SDS011;9853;50.848;4.108;2023-10-09T03:00:44;5.78;;;2.22;;
19434;SDS011;9853;50.848;4.108;2023-10-09T03:02:45;7.65;;;3.08;;
19434;SDS011;9853;50.848;4.108;2023-10-09T03:04:49;5.90;;;2.05;;
19434;SDS011;9853;50.848;4.108;2023-10-09T03:06:50;6.53;;;2.28;;
19434;SDS011;9853;50.848;4.108;2023-10-09T03:08:51;4.88;;;2.03;;
19434;SDS011;9853;50.848;4.108;2023-10-09T03:10:54;3.47;;;1.70;;
19434;SDS011;9853;50.848;4.108;2023-10-09T03:12:57;7.22;;;1.95;;
19434;SDS011;9853;50.848;4.108;2023-10-09T03:15:02;3.83;;;2.05;;
19434;SDS011;9853;50.848;4.108;2023-10-09T03:17:06;5.38;;;2.25;;
19434;SDS011;9853;50.848;4.108;2023-10-09T03:19:11;6.10;;;2.35;;
19434;SDS011;9853;50.848;4.108;2023-10-09T03:21:13;4.78;;;2.20;;
19434;SDS011;9853;50.848;4.108;2023-10-09T03:23:15;6.85;;;2.25;;
19434;SDS011;9853;50.848;4.108;2023-10-09T03:25:15;4.93;;;2.25;;
19434;SDS011;9853;50.848;4.108;2023-10-09T03:27:19;4.90;;;1.95;;
19434;SDS011;9853;50.848;4.108;2023-10-09T03:29:20;4.50;;;2.20;;
19434;SDS011;9853;50.848;4.108;2023-10-09T03:31:21;4.82;;;2.30;;
19434;SDS011;9853;50.848;4.108;2023-10-09T03:33:22;4.15;;;2.20;;
19434;SDS011;9853;50.848;4.108;2023-10-09T03:35:23;4.50;;;2.70;;
19434;SDS011;9853;50.848;4.108;2023-10-09T03:37:24;4.97;;;2.00;;
19434;SDS011;9853;50.848;4.108;2023-10-09T03:39:34;4.30;;;2.03;;
19434;SDS011;9853;50.848;4.108;2023-10-09T03:41:41;4.80;;;2.13;;
19434;SDS011;9853;50.848;4.108;2023-10-09T03:43:42;7.40;;;2.58;;
19434;SDS011;9853;50.848;4.108;2023-10-09T03:45:46;6.90;;;2.20;;
19434;SDS011;9853;50.848;4.108;2023-10-09T03:47:53;5.38;;;2.20;;
19434;SDS011;9853;50.848;4.108;2023-10-09T03:50:02;5.65;;;2.20;;
19434;SDS011;9853;50.848;4.108;2023-10-09T03:52:21;6.88;;;2.05;;
19434;SDS011;9853;50.848;4.108;2023-10-09T03:54:27;4.55;;;2.13;;
19434;SDS011;9853;50.848;4.108;2023-10-09T03:56:30;8.65;;;3.17;;
19434;SDS011;9853;50.848;4.108;2023-10-09T03:58:38;6.22;;;2.70;;
19434;SDS011;9853;50.848;4.108;2023-10-09T04:00:45;6.57;;;2.15;;
19434;SDS011;9853;50.848;4.108;2023-10-09T04:02:46;7.80;;;2.40;;
19434;SDS011;9853;50.848;4.108;2023-10-09T04:04:49;5.75;;;2.58;;
19434;SDS011;9853;50.848;4.108;2023-10-09T04:06:50;5.05;;;2.45;;
19434;SDS011;9853;50.848;4.108;2023-10-09T04:08:54;6.28;;;2.50;;
19434;SDS011;9853;50.848;4.108;2023-10-09T04:10:55;6.50;;;2.28;;
19434;SDS011;9853;50.848;4.108;2023-10-09T04:13:04;5.63;;;2.70;;
19434;SDS011;9853;50.848;4.108;2023-10-09T04:15:10;6.35;;;2.40;;
19434;SDS011;9853;50.848;4.108;2023-10-09T04:17:15;7.28;;;3.13;;
19434;SDS011;9853;50.848;4.108;2023-10-09T04:19:25;5.82;;;2.72;;
19434;SDS011;9853;50.848;4.108;2023-10-09T04:21:26;9.35;;;2.42;;
19434;SDS011;9853;50.848;4.108;2023-10-09T04:23:36;9.10;;;2.67;;
19434;SDS011;9853;50.848;4.108;2023-10-09T04:25:57;5.72;;;2.53;;
19434;SDS011;9853;50.848;4.108;2023-10-09T04:28:00;6.75;;;2.80;;
19434;SDS011;9853;50.848;4.108;2023-10-09T04:30:19;9.70;;;3.22;;
19434;SDS011;9853;50.848;4.108;2023-10-09T04:32:20;5.40;;;2.50;;
19434;SDS011;9853;50.848;4.108;2023-10-09T04:34:25;8.70;;;3.17;;
19434;SDS011;9853;50.848;4.108;2023-10-09T04:36:35;10.70;;;2.58;;
19434;SDS011;9853;50.848;4.108;2023-10-09T04:38:47;6.72;;;2.70;;
19434;SDS011;9853;50.848;4.108;2023-10-09T04:41:04;7.65;;;3.00;;
19434;SDS011;9853;50.848;4.108;2023-10-09T04:43:06;6.05;;;2.60;;
19434;SDS011;9853;50.848;4.108;2023-10-09T04:45:09;6.60;;;2.50;;
19434;SDS011;9853;50.848;4.108;2023-10-09T04:47:10;5.82;;;2.53;;
19434;SDS011;9853;50.848;4.108;2023-10-09T04:49:14;8.05;;;3.10;;
19434;SDS011;9853;50.848;4.108;2023-10-09T04:51:27;5.88;;;2.70;;
19434;SDS011;9853;50.848;4.108;2023-10-09T04:53:35;6.85;;;2.33;;
19434;SDS011;9853;50.848;4.108;2023-10-09T04:55:44;6.25;;;2.97;;
19434;SDS011;9853;50.848;4.108;2023-10-09T04:57:54;7.13;;;2.72;;
19434;SDS011;9853;50.848;4.108;2023-10-09T05:00:23;6.85;;;3.25;;
19434;SDS011;9853;50.848;4.108;2023-10-09T05:02:27;11.68;;;3.13;;
19434;SDS011;9853;50.848;4.108;2023-10-09T05:04:36;6.50;;;2.70;;
19434;SDS011;9853;50.848;4.108;2023-10-09T05:06:37;13.50;;;3.10;;
19434;SDS011;9853;50.848;4.108;2023-10-09T05:09:02;9.00;;;2.33;;
19434;SDS011;9853;50.848;4.108;2023-10-09T05:11:09;6.25;;;2.97;;
19434;SDS011;9853;50.848;4.108;2023-10-09T05:13:35;10.80;;;2.90;;
19434;SDS011;9853;50.848;4.108;2023-10-09T05:15:39;5.75;;;3.25;;
19434;SDS011;9853;50.848;4.108;2023-10-09T05:17:46;8.07;;;2.67;;
19434;SDS011;9853;50.848;4.108;2023-10-09T05:19:57;6.32;;;2.95;;
19434;SDS011;9853;50.848;4.108;2023-10-09T05:22:17;8.52;;;3.45;;
19434;SDS011;9853;50.848;4.108;2023-10-09T05:24:30;5.40;;;2.80;;
19434;SDS011;9853;50.848;4.108;2023-10-09T05:26:47;6.07;;;3.22;;
19434;SDS011;9853;50.848;4.108;2023-10-09T05:28:49;4.43;;;2.63;;
19434;SDS011;9853;50.848;4.108;2023-10-09T05:30:52;15.70;;;3.33;;
19434;SDS011;9853;50.848;4.108;2023-10-09T05:33:09;4.95;;;2.50;;
19434;SDS011;9853;50.848;4.108;2023-10-09T05:35:28;5.28;;;2.72;;
19434;SDS011;9853;50.848;4.108;2023-10-09T05:37:59;5.13;;;2.88;;
19434;SDS011;9853;50.848;4.108;2023-10-09T05:40:05;4.63;;;2.17;;
19434;SDS011;9853;50.848;4.108;2023-10-09T05:42:18;6.38;;;3.00;;
19434;SDS011;9853;50.848;4.108;2023-10-09T05:44:28;8.25;;;3.20;;
19434;SDS011;9853;50.848;4.108;2023-10-09T05:46:47;11.70;;;3.10;;
19434;SDS011;9853;50.848;4.108;2023-10-09T05:49:08;5.72;;;2.53;;
19434;SDS011;9853;50.848;4.108;2023-10-09T05:51:20;5.50;;;2.33;;
19434;SDS011;9853;50.848;4.108;2023-10-09T05:53:39;7.70;;;3.00;;
19434;SDS011;9853;50.848;4.108;2023-10-09T05:55:46;5.20;;;2.60;;
19434;SDS011;9853;50.848;4.108;2023-10-09T05:58:22;6.53;;;2.95;;
19434;SDS011;9853;50.848;4.108;2023-10-09T06:00:42;7.60;;;2.95;;
19434;SDS011;9853;50.848;4.108;2023-10-09T06:03:02;8.23;;;2.83;;
19434;SDS011;9853;50.848;4.108;2023-10-09T06:05:21;6.30;;;2.80;;
19434;SDS011;9853;50.848;4.108;2023-10-09T06:07:48;8.88;;;3.50;;
19434;SDS011;9853;50.848;4.108;2023-10-09T06:10:07;5.75;;;3.20;;
19434;SDS011;9853;50.848;4.108;2023-10-09T06:12:28;11.30;;;2.97;;
19434;SDS011;9853;50.848;4.108;2023-10-09T06:14:31;6.80;;;2.90;;
19434;SDS011;9853;50.848;4.108;2023-10-09T06:16:35;5.90;;;2.90;;
19434;SDS011;9853;50.848;4.108;2023-10-09T06:18:43;11.20;;;3.22;;
19434;SDS011;9853;50.848;4.108;2023-10-09T06:20:54;6.50;;;2.50;;
19434;SDS011;9853;50.848;4.108;2023-10-09T06:23:09;6.45;;;3.15;;
19434;SDS011;9853;50.848;4.108;2023-10-09T06:25:16;6.22;;;3.40;;
19434;SDS011;9853;50.848;4.108;2023-10-09T06:27:18;7.20;;;3.10;;
19434;SDS011;9853;50.848;4.108;2023-10-09T06:29:31;8.25;;;3.25;;
19434;SDS011;9853;50.848;4.108;2023-10-09T06:31:44;5.57;;;2.92;;
19434;SDS011;9853;50.848;4.108;2023-10-09T06:34:16;9.38;;;3.03;;
19434;SDS011;9853;50.848;4.108;2023-10-09T06:36:18;6.32;;;2.70;;
19434;SDS011;9853;50.848;4.108;2023-10-09T06:38:19;7.30;;;3.10;;
19434;SDS011;9853;50.848;4.108;2023-10-09T06:40:23;8.20;;;3.05;;
19434;SDS011;9853;50.848;4.108;2023-10-09T06:42:43;6.68;;;3.15;;
19434;SDS011;9853;50.848;4.108;2023-10-09T06:44:44;8.63;;;3.20;;
19434;SDS011;9853;50.848;4.108;2023-10-09T06:46:54;6.80;;;3.40;;
19434;SDS011;9853;50.848;4.108;2023-10-09T06:48:57;8.85;;;3.85;;
19434;SDS011;9853;50.848;4.108;2023-10-09T06:51:09;6.95;;;3.20;;
19434;SDS011;9853;50.848;4.108;2023-10-09T06:53:26;7.05;;;3.63;;
19434;SDS011;9853;50.848;4.108;2023-10-09T06:55:46;9.20;;;3.63;;
19434;SDS011;9853;50.848;4.108;2023-10-09T06:57:50;9.93;;;3.08;;
19434;SDS011;9853;50.848;4.108;2023-10-09T06:59:54;8.07;;;3.85;;
19434;SDS011;9853;50.848;4.108;2023-10-09T07:02:14;6.72;;;3.70;;
19434;SDS011;9853;50.848;4.108;2023-10-09T07:04:27;8.10;;;3.60;;
19434;SDS011;9853;50.848;4.108;2023-10-09T07:06:30;9.65;;;4.10;;
19434;SDS011;9853;50.848;4.108;2023-10-09T07:08:35;4.75;;;2.97;;
19434;SDS011;9853;50.848;4.108;2023-10-09T07:11:00;8.40;;;3.70;;
19434;SDS011;9853;50.848;4.108;2023-10-09T07:13:19;8.43;;;3.15;;
19434;SDS011;9853;50.848;4.108;2023-10-09T07:15:24;8.23;;;3.47;;
19434;SDS011;9853;50.848;4.108;2023-10-09T07:18:00;7.55;;;3.13;;
19434;SDS011;9853;50.848;4.108;2023-10-09T07:20:19;7.25;;;3.63;;
19434;SDS011;9853;50.848;4.108;2023-10-09T07:22:37;7.25;;;3.50;;
19434;SDS011;9853;50.848;4.108;2023-10-09T07:24:58;7.30;;;3.42;;
19434;SDS011;9853;50.848;4.108;2023-10-09T07:27:17;8.80;;;3.47;;
19434;SDS011;9853;50.848;4.108;2023-10-09T07:29:38;7.15;;;3.22;;
19434;SDS011;9853;50.848;4.108;2023-10-09T07:31:51;11.63;;;3.95;;
19434;SDS011;9853;50.848;4.108;2023-10-09T07:34:12;11.80;;;4.07;;
19434;SDS011;9853;50.848;4.108;2023-10-09T07:36:42;9.65;;;3.67;;
19434;SDS011;9853;50.848;4.108;2023-10-09T07:38:49;15.18;;;4.10;;
19434;SDS011;9853;50.848;4.108;2023-10-09T07:40:55;13.10;;;4.05;;
19434;SDS011;9853;50.848;4.108;2023-10-09T07:43:02;11.30;;;4.20;;
19434;SDS011;9853;50.848;4.108;2023-10-09T07:45:05;7.95;;;3.65;;
19434;SDS011;9853;50.848;4.108;2023-10-09T07:47:33;6.25;;;3.72;;
19434;SDS011;9853;50.848;4.108;2023-10-09T07:49:46;9.98;;;4.35;;
19434;SDS011;9853;50.848;4.108;2023-10-09T07:51:53;11.60;;;4.85;;
19434;SDS011;9853;50.848;4.108;2023-10-09T07:53:56;8.50;;;3.63;;
19434;SDS011;9853;50.848;4.108;2023-10-09T07:56:09;12.15;;;4.20;;
19434;SDS011;9853;50.848;4.108;2023-10-09T07:58:13;7.35;;;3.53;;
19434;SDS011;9853;50.848;4.108;2023-10-09T08:00:14;7.15;;;3.35;;
19434;SDS011;9853;50.848;4.108;2023-10-09T08:02:34;7.05;;;3.58;;
19434;SDS011;9853;50.848;4.108;2023-10-09T08:04:34;8.15;;;3.65;;
19434;SDS011;9853;50.848;4.108;2023-10-09T08:06:41;8.27;;;3.42;;
19434;SDS011;9853;50.848;4.108;2023-10-09T08:08:45;6.60;;;3.25;;
19434;SDS011;9853;50.848;4.108;2023-10-09T08:11:07;10.48;;;4.07;;
19434;SDS011;9853;50.848;4.108;2023-10-09T08:13:26;7.63;;;3.30;;
19434;SDS011;9853;50.848;4.108;2023-10-09T08:15:55;10.20;;;4.43;;
19434;SDS011;9853;50.848;4.108;2023-10-09T08:17:56;9.40;;;4.28;;
19434;SDS011;9853;50.848;4.108;2023-10-09T08:20:18;7.28;;;3.38;;
19434;SDS011;9853;50.848;4.108;2023-10-09T08:22:25;8.65;;;3.45;;
19434;SDS011;9853;50.848;4.108;2023-10-09T08:24:30;12.77;;;4.70;;
19434;SDS011;9853;50.848;4.108;2023-10-09T08:26:53;13.02;;;3.60;;
19434;SDS011;9853;50.848;4.108;2023-10-09T08:29:14;7.13;;;3.65;;
19434;SDS011;9853;50.848;4.108;2023-10-09T08:31:18;6.60;;;3.25;;
19434;SDS011;9853;50.848;4.108;2023-10-09T08:33:34;9.98;;;4.43;;
19434;SDS011;9853;50.848;4.108;2023-10-09T08:35:37;8.27;;;3.63;;
19434;SDS011;9853;50.848;4.108;2023-10-09T08:37:51;5.65;;;3.35;;
19434;SDS011;9853;50.848;4.108;2023-10-09T08:39:53;12.43;;;3.97;;
19434;SDS011;9853;50.848;4.108;2023-10-09T08:41:54;7.72;;;3.75;;
19434;SDS011;9853;50.848;4.108;2023-10-09T08:43:58;5.05;;;3.20;;
19434;SDS011;9853;50.848;4.108;2023-10-09T08:46:00;9.23;;;3.63;;
19434;SDS011;9853;50.848;4.108;2023-10-09T08:48:02;8.95;;;4.25;;
19434;SDS011;9853;50.848;4.108;2023-10-09T08:50:05;13.65;;;3.60;;
19434;SDS011;9853;50.848;4.108;2023-10-09T08:52:13;8.43;;;3.88;;
19434;SDS011;9853;50.848;4.108;2023-10-09T08:54:14;10.35;;;4.43;;
19434;SDS011;9853;50.848;4.108;2023-10-09T08:56:16;11.93;;;4.05;;
19434;SDS011;9853;50.848;4.108;2023-10-09T08:58:24;11.65;;;3.85;;
19434;SDS011;9853;50.848;4.108;2023-10-09T09:00:26;9.05;;;3.58;;
19434;SDS011;9853;50.848;4.108;2023-10-09T09:02:33;9.27;;;3.53;;
19434;SDS011;9853;50.848;4.108;2023-10-09T09:04:35;8.55;;;4.05;;
19434;SDS011;9853;50.848;4.108;2023-10-09T09:06:38;12.95;;;4.95;;
19434;SDS011;9853;50.848;4.108;2023-10-09T09:08:42;8.60;;;4.28;;
19434;SDS011;9853;50.848;4.108;2023-10-09T09:10:45;10.45;;;4.07;;
19434;SDS011;9853;50.848;4.108;2023-10-09T09:12:47;12.88;;;4.18;;
19434;SDS011;9853;50.848;4.108;2023-10-09T09:15:00;10.77;;;3.95;;
19434;SDS011;9853;50.848;4.108;2023-10-09T09:17:03;10.95;;;4.65;;
19434;SDS011;9853;50.848;4.108;2023-10-09T09:19:05;9.00;;;4.10;;
19434;SDS011;9853;50.848;4.108;2023-10-09T09:21:17;8.40;;;4.32;;
19434;SDS011;9853;50.848;4.108;2023-10-09T09:23:27;9.07;;;4.25;;
19434;SDS011;9853;50.848;4.108;2023-10-09T09:25:39;9.48;;;4.13;;
19434;SDS011;9853;50.848;4.108;2023-10-09T09:28:00;11.25;;;4.68;;
19434;SDS011;9853;50.848;4.108;2023-10-09T09:30:21;9.20;;;4.13;;
19434;SDS011;9853;50.848;4.108;2023-10-09T09:32:35;11.52;;;3.90;;
19434;SDS011;9853;50.848;4.108;2023-10-09T09:36:50;7.03;;;3.63;;
19434;SDS011;9853;50.848;4.108;2023-10-09T09:38:55;16.45;;;4.70;;
19434;SDS011;9853;50.848;4.108;2023-10-09T09:41:25;11.10;;;5.13;;
19434;SDS011;9853;50.848;4.108;2023-10-09T09:43:27;7.40;;;4.15;;
19434;SDS011;9853;50.848;4.108;2023-10-09T09:45:36;9.88;;;4.15;;
19434;SDS011;9853;50.848;4.108;2023-10-09T09:47:38;10.85;;;4.55;;
19434;SDS011;9853;50.848;4.108;2023-10-09T09:50:04;9.98;;;3.88;;
19434;SDS011;9853;50.848;4.108;2023-10-09T09:52:14;7.78;;;3.40;;
19434;SDS011;9853;50.848;4.108;2023-10-09T09:54:18;11.35;;;4.03;;
19434;SDS011;9853;50.848;4.108;2023-10-09T09:56:23;8.82;;;4.00;;
19434;SDS011;9853;50.848;4.108;2023-10-09T09:58:26;10.48;;;4.25;;
19434;SDS011;9853;50.848;4.108;2023-10-09T10:00:43;9.82;;;3.90;;
19434;SDS011;9853;50.848;4.108;2023-10-09T10:02:45;11.38;;;4.18;;
19434;SDS011;9853;50.848;4.108;2023-10-09T10:04:46;11.68;;;4.18;;
19434;SDS011;9853;50.848;4.108;2023-10-09T10:06:50;12.73;;;4.60;;
19434;SDS011;9853;50.848;4.108;2023-10-09T10:08:55;10.30;;;3.90;;
19434;SDS011;9853;50.848;4.108;2023-10-09T10:10:56;15.10;;;4.20;;
19434;SDS011;9853;50.848;4.108;2023-10-09T10:13:05;8.98;;;4.13;;
19434;SDS011;9853;50.848;4.108;2023-10-09T10:15:06;7.65;;;3.80;;
19434;SDS011;9853;50.848;4.108;2023-10-09T10:17:14;8.23;;;3.63;;
19434;SDS011;9853;50.848;4.108;2023-10-09T10:19:18;8.23;;;4.05;;
19434;SDS011;9853;50.848;4.108;2023-10-09T10:21:19;10.65;;;4.35;;
19434;SDS011;9853;50.848;4.108;2023-10-09T10:23:32;9.95;;;3.83;;
19434;SDS011;9853;50.848;4.108;2023-10-09T10:25:38;14.57;;;4.55;;
19434;SDS011;9853;50.848;4.108;2023-10-09T10:27:42;8.80;;;4.13;;
19434;SDS011;9853;50.848;4.108;2023-10-09T10:32:18;8.63;;;4.05;;
19434;SDS011;9853;50.848;4.108;2023-10-09T10:34:24;11.38;;;4.15;;
19434;SDS011;9853;50.848;4.108;2023-10-09T10:36:25;8.20;;;4.00;;
19434;SDS011;9853;50.848;4.108;2023-10-09T10:38:30;10.93;;;3.40;;
19434;SDS011;9853;50.848;4.108;2023-10-09T10:40:36;9.55;;;3.97;;
19434;SDS011;9853;50.848;4.108;2023-10-09T10:42:47;7.40;;;3.63;;
19434;SDS011;9853;50.848;4.108;2023-10-09T10:45:08;8.68;;;4.00;;
19434;SDS011;9853;50.848;4.108;2023-10-09T10:47:38;12.07;;;4.45;;
19434;SDS011;9853;50.848;4.108;2023-10-09T10:49:43;5.20;;;3.13;;
19434;SDS011;9853;50.848;4.108;2023-10-09T10:51:45;7.93;;;3.60;;
19434;SDS011;9853;50.848;4.108;2023-10-09T10:53:52;8.43;;;3.85;;
19434;SDS011;9853;50.848;4.108;2023-10-09T10:56:13;8.18;;;3.67;;
19434;SDS011;9853;50.848;4.108;2023-10-09T10:58:15;8.35;;;3.95;;
19434;SDS011;9853;50.848;4.108;2023-10-09T11:00:27;9.85;;;3.78;;
19434;SDS011;9853;50.848;4.108;2023-10-09T11:03:07;8.90;;;3.70;;
19434;SDS011;9853;50.848;4.108;2023-10-09T11:05:16;6.82;;;3.47;;
19434;SDS011;9853;50.848;4.108;2023-10-09T11:07:26;15.55;;;3.97;;
19434;SDS011;9853;50.848;4.108;2023-10-09T11:09:28;7.13;;;4.00;;
19434;SDS011;9853;50.848;4.108;2023-10-09T11:11:35;11.00;;;4.22;;
19434;SDS011;9853;50.848;4.108;2023-10-09T11:13:47;9.63;;;3.70;;
19434;SDS011;9853;50.848;4.108;2023-10-09T11:16:05;9.93;;;3.38;;
19434;SDS011;9853;50.848;4.108;2023-10-09T11:18:15;9.25;;;4.20;;
19434;SDS011;9853;50.848;4.108;2023-10-09T11:20:20;13.88;;;3.60;;
19434;SDS011;9853;50.848;4.108;2023-10-09T11:22:26;9.38;;;3.72;;
19434;SDS011;9853;50.848;4.108;2023-10-09T11:24:28;10.55;;;3.55;;
19434;SDS011;9853;50.848;4.108;2023-10-09T11:26:35;10.50;;;3.67;;
19434;SDS011;9853;50.848;4.108;2023-10-09T11:28:40;6.72;;;3.42;;
19434;SDS011;9853;50.848;4.108;2023-10-09T11:31:06;7.85;;;3.72;;
19434;SDS011;9853;50.848;4.108;2023-10-09T11:33:16;7.05;;;3.50;;
19434;SDS011;9853;50.848;4.108;2023-10-09T11:35:17;10.38;;;3.53;;
19434;SDS011;9853;50.848;4.108;2023-10-09T11:37:28;8.00;;;3.80;;
19434;SDS011;9853;50.848;4.108;2023-10-09T11:39:29;7.03;;;3.70;;
19434;SDS011;9853;50.848;4.108;2023-10-09T11:41:32;5.65;;;2.92;;
19434;SDS011;9853;50.848;4.108;2023-10-09T11:43:53;8.68;;;3.28;;
19434;SDS011;9853;50.848;4.108;2023-10-09T11:46:07;9.95;;;3.70;;
19434;SDS011;9853;50.848;4.108;2023-10-09T11:48:23;11.52;;;3.95;;
19434;SDS011;9853;50.848;4.108;2023-10-09T11:50:43;7.97;;;3.80;;
19434;SDS011;9853;50.848;4.108;2023-10-09T11:52:57;10.02;;;3.30;;
19434;SDS011;9853;50.848;4.108;2023-10-09T11:55:35;6.85;;;3.25;;
19434;SDS011;9853;50.848;4.108;2023-10-09T11:57:36;7.38;;;3.70;;
19434;SDS011;9853;50.848;4.108;2023-10-09T11:59:38;5.53;;;3.35;;
19434;SDS011;9853;50.848;4.108;2023-10-09T12:01:39;9.18;;;3.72;;
19434;SDS011;9853;50.848;4.108;2023-10-09T12:03:43;5.55;;;2.80;;
19434;SDS011;9853;50.848;4.108;2023-10-09T12:05:49;7.93;;;3.55;;
19434;SDS011;9853;50.848;4.108;2023-10-09T12:07:50;6.05;;;2.88;;
19434;SDS011;9853;50.848;4.108;2023-10-09T12:09:55;10.63;;;4.38;;
19434;SDS011;9853;50.848;4.108;2023-10-09T12:11:57;9.63;;;3.33;;
19434;SDS011;9853;50.848;4.108;2023-10-09T12:14:00;6.90;;;3.58;;
19434;SDS011;9853;50.848;4.108;2023-10-09T12:16:01;9.55;;;3.42;;
19434;SDS011;9853;50.848;4.108;2023-10-09T12:18:07;9.38;;;3.72;;
19434;SDS011;9853;50.848;4.108;2023-10-09T12:20:19;7.50;;;3.53;;
19434;SDS011;9853;50.848;4.108;2023-10-09T12:22:32;7.07;;;3.63;;
19434;SDS011;9853;50.848;4.108;2023-10-09T12:24:33;7.32;;;3.28;;
19434;SDS011;9853;50.848;4.108;2023-10-09T12:26:34;10.40;;;3.92;;
19434;SDS011;9853;50.848;4.108;2023-10-09T12:28:35;6.43;;;3.25;;
19434;SDS011;9853;50.848;4.108;2023-10-09T12:30:36;7.18;;;2.92;;
19434;SDS011;9853;50.848;4.108;2023-10-09T12:32:39;7.38;;;3.30;;
19434;SDS011;9853;50.848;4.108;2023-10-09T12:34:40;7.55;;;3.58;;
19434;SDS011;9853;50.848;4.108;2023-10-09T12:36:44;7.65;;;3.03;;
19434;SDS011;9853;50.848;4.108;2023-10-09T12:38:48;10.55;;;3.65;;
19434;SDS011;9853;50.848;4.108;2023-10-09T12:41:04;8.07;;;3.33;;
19434;SDS011;9853;50.848;4.108;2023-10-09T12:43:19;7.25;;;3.67;;
19434;SDS011;9853;50.848;4.108;2023-10-09T12:45:22;7.18;;;3.53;;
19434;SDS011;9853;50.848;4.108;2023-10-09T12:47:26;7.68;;;3.95;;
19434;SDS011;9853;50.848;4.108;2023-10-09T12:49:27;10.18;;;3.33;;
19434;SDS011;9853;50.848;4.108;2023-10-09T12:51:27;11.70;;;4.03;;
19434;SDS011;9853;50.848;4.108;2023-10-09T12:53:34;8.23;;;3.65;;
19434;SDS011;9853;50.848;4.108;2023-10-09T12:55:40;5.20;;;2.90;;
19434;SDS011;9853;50.848;4.108;2023-10-09T12:57:41;7.38;;;3.80;;
19434;SDS011;9853;50.848;4.108;2023-10-09T12:59:42;6.95;;;3.10;;
19434;SDS011;9853;50.848;4.108;2023-10-09T13:01:45;7.18;;;3.22;;
19434;SDS011;9853;50.848;4.108;2023-10-09T13:03:52;5.78;;;3.08;;
19434;SDS011;9853;50.848;4.108;2023-10-09T13:05:53;6.43;;;3.10;;
19434;SDS011;9853;50.848;4.108;2023-10-09T13:07:55;6.03;;;3.40;;
19434;SDS011;9853;50.848;4.108;2023-10-09T13:09:58;5.75;;;3.15;;